Time,TemperatureF,DewpointF,PressureIn,WindDirection,WindDirectionDegrees,WindSpeedMPH,WindSpeedGustMPH,Humidity,HourlyPrecipIn,Conditions,Clouds,dailyrainin,SoftwareType,DateUTC
2013-07-10 04:00:00,74.0,-99.9,29.88,SW,220,15.0,-999.0,-999,-99.99,,,-99.99,,2013-07-10 04:00:00,
2013-07-10 04:43:00,74.0,-99.9,29.88,SW,220,15.0,-999.0,-999,-99.99,,,-99.99,,2013-07-10 04:43:00,
2013-07-10 04:52:00,74.0,-99.9,29.88,SW,220,15.0,-999.0,-999,-99.99,,,-99.99,,2013-07-10 04:52:00,
2013-07-10 05:00:00,72.0,-99.9,29.85,SW,220,12.0,-999.0,-999,-99.99,,,-99.99,,2013-07-10 05:00:00,
2013-07-10 05:42:00,72.0,-99.9,29.85,SW,220,12.0,-999.0,-999,-99.99,,,-99.99,,2013-07-10 05:42:00,
2013-07-10 05:53:00,72.0,-99.9,29.85,SW,220,12.0,-999.0,-999,-99.99,,,-99.99,,2013-07-10 05:53:00,
2013-07-10 13:00:00,69.0,-99.9,29.74,West,260,25.0,-999.0,-999,-99.99,,,-99.99,,2013-07-10 13:00:00,
2013-07-10 14:00:00,68.0,-99.9,29.73,WSW,250,18.0,-999.0,-999,-99.99,,,-99.99,,2013-07-10 14:00:00,
2013-07-10 14:44:00,68.0,-99.9,29.73,WSW,250,18.0,-999.0,-999,-99.99,,,-99.99,,2013-07-10 14:44:00,
2013-07-10 14:53:00,68.0,-99.9,29.73,WSW,250,18.0,-999.0,-999,-99.99,,,-99.99,,2013-07-10 14:53:00,
2013-07-10 16:00:00,64.0,-99.9,29.75,West,270,28.0,-999.0,-999,-99.99,,,-99.99,,2013-07-10 16:00:00,
2013-07-10 16:44:00,64.0,-99.9,29.75,West,270,28.0,-999.0,-999,-99.99,,,-99.99,,2013-07-10 16:44:00,
2013-07-10 16:53:00,64.0,-99.9,29.75,West,270,28.0,-999.0,-999,-99.99,,,-99.99,,2013-07-10 16:53:00,
2013-07-10 17:00:00,62.0,-99.9,29.78,West,280,25.0,-999.0,-999,-99.99,,,-99.99,,2013-07-10 17:00:00,
2013-07-10 18:00:00,64.0,-99.9,29.80,West,280,24.0,-999.0,-999,-99.99,,,-99.99,,2013-07-10 18:00:00,
2013-07-10 18:53:00,64.0,-99.9,29.80,West,280,24.0,-999.0,-999,-99.99,,,-99.99,,2013-07-10 18:53:00,
2013-07-10 19:00:00,65.0,-99.9,29.78,NW,320,20.0,-999.0,-999,-99.99,,,-99.99,,2013-07-10 19:00:00,
2013-07-10 19:32:00,65.0,-99.9,29.78,NW,320,20.0,-999.0,-999,-99.99,,,-99.99,,2013-07-10 19:32:00,
2013-07-10 19:42:00,65.0,-99.9,29.78,NW,320,20.0,-999.0,-999,-99.99,,,-99.99,,2013-07-10 19:42:00,
2013-07-10 19:53:00,65.0,-99.9,29.78,NW,320,20.0,-999.0,-999,-99.99,,,-99.99,,2013-07-10 19:53:00,
2013-07-10 20:00:00,63.0,-99.9,29.81,NW,310,25.0,-999.0,-999,-99.99,,,-99.99,,2013-07-10 20:00:00,
2013-07-10 20:52:00,63.0,-99.9,29.81,NW,310,25.0,-999.0,-999,-99.99,,,-99.99,,2013-07-10 20:52:00,
2013-07-10 22:00:00,63.0,-99.9,29.83,NW,310,23.0,-999.0,-999,-99.99,,,-99.99,,2013-07-10 22:00:00,
2013-07-10 22:43:00,63.0,-99.9,29.83,NW,310,23.0,-999.0,-999,-99.99,,,-99.99,,2013-07-10 22:43:00,
2013-07-10 22:53:00,63.0,-99.9,29.83,NW,310,23.0,-999.0,-999,-99.99,,,-99.99,,2013-07-10 22:53:00,